Time;durP1;ratioP1;P1;durP2;ratioP2;P2;SDS_P1;SDS_P2;PMS_P1;PMS_P2;Temp;Humidity;BMP_temperature;BMP_pressure;BME280_temperature;BME280_humidity;BME280_pressure;Samples;Min_cycle;Max_cycle;Signal;HPM_P1;HPM_P2
2021/04/01 00:02:14;;;;;;;5.75;1.95;;;29.40;78.50;;;;;;5097913;28;20381;-81
2021/04/01 00:04:42;;;;;;;5.82;1.38;;;28.90;76.50;;;;;;5106959;28;20418;-81
2021/04/01 00:07:11;;;;;;;7.47;1.77;;;28.10;81.20;;;;;;5093881;28;20380;-80
2021/04/01 00:09:38;;;;;;;5.38;1.55;;;27.20;84.90;;;;;;5112110;28;20381;-81
2021/04/01 00:12:06;;;;;;;9.38;1.70;;;27.40;90.30;;;;;;5094852;28;20447;-82
2021/04/01 00:14:34;;;;;;;4.88;1.70;;;27.00;86.70;;;;;;5092706;28;20381;-81
2021/04/01 00:17:03;;;;;;;7.15;1.90;;;27.00;88.10;;;;;;5092112;28;20387;-81
2021/04/01 00:19:30;;;;;;;8.82;1.92;;;26.60;87.00;;;;;;5090791;28;20432;-81
2021/04/01 00:21:57;;;;;;;6.55;1.45;;;26.40;91.20;;;;;;5093274;28;20435;-82
2021/04/01 00:24:24;;;;;;;7.40;1.50;;;26.30;91.00;;;;;;5103230;28;20546;-82
2021/04/01 00:26:51;;;;;;;8.35;1.50;;;25.40;91.80;;;;;;5103405;28;20453;-81
2021/04/01 00:29:18;;;;;;;5.85;1.50;;;24.40;95.30;;;;;;5072934;28;20400;-82
2021/04/01 00:31:45;;;;;;;6.50;1.48;;;23.30;98.00;;;;;;5106280;28;20386;-81
2021/04/01 00:34:12;;;;;;;5.40;1.60;;;22.50;99.90;;;;;;5111358;28;20400;-81
2021/04/01 00:36:39;;;;;;;5.90;1.38;;;21.80;99.90;;;;;;5102447;28;20915;-80
2021/04/01 00:39:06;;;;;;;3.63;1.27;;;22.30;99.90;;;;;;5092843;28;20916;-80
2021/04/01 00:41:33;;;;;;;5.95;1.73;;;23.90;99.90;;;;;;5099936;28;20392;-80
2021/04/01 00:44:04;;;;;;;3.57;1.37;;;24.50;98.30;;;;;;5087129;28;20757;-79
2021/04/01 00:46:31;;;;;;;3.90;1.13;;;24.60;98.60;;;;;;5083877;28;20771;-80
2021/04/01 00:48:58;;;;;;;5.07;1.05;;;25.40;96.20;;;;;;5089349;28;20426;-80
2021/04/01 00:51:26;;;;;;;6.60;1.50;;;25.30;96.10;;;;;;5092458;28;20384;-80
2021/04/01 00:53:52;;;;;;;5.47;1.25;;;24.60;97.00;;;;;;5091930;28;20392;-80
2021/04/01 00:56:21;;;;;;;7.70;1.35;;;23.80;99.10;;;;;;5094836;28;20379;-81
2021/04/01 00:58:48;;;;;;;4.85;1.23;;;23.90;99.70;;;;;;5107116;28;20489;-80
2021/04/01 01:03:42;;;;;;;3.83;1.30;;;25.30;97.90;;;;;;5089708;28;20375;-80
2021/04/01 01:06:09;;;;;;;6.63;1.65;;;25.90;95.00;;;;;;5099944;28;20386;-81
2021/04/01 01:08:36;;;;;;;3.85;1.27;;;25.90;94.30;;;;;;5100211;28;20811;-81
2021/04/01 01:11:03;;;;;;;4.15;1.27;;;26.00;97.00;;;;;;5095974;28;20416;-81
2021/04/01 01:13:31;;;;;;;6.22;1.40;;;25.50;96.00;;;;;;5070856;28;20388;-80
2021/04/01 01:15:58;;;;;;;5.05;1.10;;;24.70;96.20;;;;;;5076903;28;20382;-81
2021/04/01 01:18:28;;;;;;;4.85;1.20;;;24.30;97.30;;;;;;5108825;28;20409;-80
2021/04/01 01:21:02;;;;;;;5.55;1.30;;;24.00;98.40;;;;;;5075220;28;20404;-81
2021/04/01 01:23:29;;;;;;;5.75;1.00;;;23.40;99.80;;;;;;5092324;28;20499;-81
2021/04/01 01:25:57;;;;;;;4.13;1.10;;;23.00;98.00;;;;;;5103763;28;20720;-81
2021/04/01 01:28:25;;;;;;;3.23;1.17;;;22.70;99.20;;;;;;5088440;28;20430;-81
2021/04/01 01:30:53;;;;;;;4.47;1.27;;;22.70;99.90;;;;;;5093147;28;20880;-82
2021/04/01 01:33:22;;;;;;;4.00;1.00;;;22.60;99.90;;;;;;5106692;28;20757;-82
2021/04/01 01:35:52;;;;;;;3.07;0.90;;;22.60;99.90;;;;;;5105780;28;20378;-82
2021/04/01 01:38:20;;;;;;;3.97;0.97;;;22.70;99.90;;;;;;5090248;28;20390;-81
2021/04/01 01:40:47;;;;;;;3.97;1.25;;;22.90;99.90;;;;;;5107773;28;20419;-81
2021/04/01 01:43:16;;;;;;;4.15;1.02;;;23.10;99.90;;;;;;5086426;28;20379;-81
2021/04/01 01:45:44;;;;;;;3.37;0.80;;;23.20;99.90;;;;;;5081575;28;20384;-81
2021/04/01 01:48:12;;;;;;;4.38;1.27;;;23.10;99.90;;;;;;5099120;28;20380;-81
2021/04/01 01:50:40;;;;;;;3.38;0.70;;;22.90;99.70;;;;;;5097786;28;21154;-82
2021/04/01 01:53:09;;;;;;;4.97;1.20;;;22.60;99.90;;;;;;5099791;28;20888;-81
2021/04/01 01:55:36;;;;;;;2.72;0.90;;;22.30;99.90;;;;;;5102381;28;20377;-81
2021/04/01 01:58:04;;;;;;;5.03;1.00;;;22.00;99.90;;;;;;5089013;28;20373;-81
2021/04/01 02:00:33;;;;;;;5.90;1.00;;;21.90;99.90;;;;;;5092501;28;20382;-81
2021/04/01 02:03:04;;;;;;;3.28;0.75;;;21.70;99.90;;;;;;5106255;28;20380;-80
2021/04/01 02:05:32;;;;;;;3.33;1.00;;;21.80;99.90;;;;;;5108431;28;20899;-81
2021/04/01 02:08:00;;;;;;;3.30;1.00;;;21.80;99.90;;;;;;5108828;28;20374;-81
2021/04/01 02:10:36;;;;;;;3.20;0.80;;;21.70;99.90;;;;;;5109040;28;20390;-80
2021/04/01 02:13:04;;;;;;;3.47;1.27;;;21.70;99.90;;;;;;5107996;28;20810;-80
2021/04/01 02:15:34;;;;;;;3.85;1.25;;;21.80;99.90;;;;;;5107370;28;20389;-81
2021/04/01 02:18:27;;;;;;;4.90;0.95;;;21.80;99.90;;;;;;5109177;28;20367;-81
2021/04/01 02:20:57;;;;;;;3.03;0.80;;;22.00;99.90;;;;;;5108476;28;20383;-80
2021/04/01 02:23:29;;;;;;;2.58;0.80;;;22.10;99.90;;;;;;5090711;28;20394;-81
2021/04/01 02:25:57;;;;;;;3.25;0.80;;;22.30;99.90;;;;;;5098591;28;20449;-80
2021/04/01 02:28:26;;;;;;;4.80;1.20;;;22.40;99.90;;;;;;5088945;28;20434;-81
2021/04/01 02:30:58;;;;;;;4.07;0.73;;;22.50;99.90;;;;;;5088527;28;20443;-80
2021/04/01 02:33:31;;;;;;;4.40;0.85;;;22.60;99.90;;;;;;5070316;28;20422;-81
2021/04/01 02:35:58;;;;;;;7.40;0.90;;;22.50;99.60;;;;;;5095505;28;20412;-81
2021/04/01 02:38:26;;;;;;;2.45;1.13;;;22.40;99.90;;;;;;5105696;28;20386;-80
2021/04/01 02:40:55;;;;;;;4.20;1.10;;;22.30;99.90;;;;;;5087423;28;21021;-81
2021/04/01 02:43:32;;;;;;;2.67;1.00;;;22.20;99.90;;;;;;5100213;28;20398;-81
2021/04/01 02:46:01;;;;;;;3.85;1.00;;;22.10;99.90;;;;;;5104251;28;20370;-81
2021/04/01 02:48:28;;;;;;;2.85;1.10;;;22.20;99.90;;;;;;5090401;28;20422;-80
2021/04/01 02:50:56;;;;;;;4.30;1.20;;;22.10;99.90;;;;;;5089501;28;20881;-80
2021/04/01 02:53:23;;;;;;;3.42;0.80;;;22.10;99.90;;;;;;5096966;28;20476;-80
2021/04/01 02:55:50;;;;;;;3.83;1.00;;;22.10;99.90;;;;;;5089684;28;20387;-81
2021/04/01 02:58:18;;;;;;;3.42;1.27;;;22.10;99.90;;;;;;5105610;28;20952;-80
2021/04/01 03:00:45;;;;;;;3.72;1.00;;;22.10;99.90;;;;;;5101731;28;20422;-81
2021/04/01 03:03:20;;;;;;;4.82;0.82;;;22.00;99.90;;;;;;5104770;28;20390;-81
2021/04/01 03:05:47;;;;;;;4.18;1.10;;;22.00;99.90;;;;;;5109571;28;20401;-81
2021/04/01 03:08:15;;;;;;;4.03;0.88;;;22.20;99.90;;;;;;5112669;28;20362;-81
2021/04/01 03:10:42;;;;;;;2.65;0.75;;;22.30;99.90;;;;;;5095659;28;20395;-81
2021/04/01 03:13:09;;;;;;;4.28;1.20;;;22.40;99.90;;;;;;5092179;28;20368;-80
2021/04/01 03:15:36;;;;;;;4.25;1.10;;;22.40;99.90;;;;;;5101194;28;20417;-80
2021/04/01 03:18:04;;;;;;;3.58;1.00;;;22.40;99.90;;;;;;5093833;28;20434;-80
2021/04/01 03:20:31;;;;;;;4.93;1.00;;;22.30;99.90;;;;;;5111987;28;20772;-80
2021/04/01 03:22:58;;;;;;;2.67;0.90;;;22.20;99.90;;;;;;5112330;28;20900;-80
2021/04/01 03:25:25;;;;;;;4.03;1.10;;;22.10;99.90;;;;;;5091575;28;20398;-80
2021/04/01 03:27:52;;;;;;;3.67;0.87;;;22.00;99.90;;;;;;5105265;28;20933;-80
2021/04/01 03:30:20;;;;;;;4.38;1.10;;;22.00;99.90;;;;;;5092762;28;20803;-80
2021/04/01 03:32:48;;;;;;;6.85;1.20;;;22.20;99.90;;;;;;5104629;28;20507;-81
2021/04/01 03:35:19;;;;;;;3.60;0.80;;;22.30;99.90;;;;;;5091081;28;20384;-79
2021/04/01 03:37:48;;;;;;;3.00;0.98;;;22.40;99.90;;;;;;5097766;28;20371;-80
2021/04/01 03:40:15;;;;;;;4.33;0.80;;;22.40;99.90;;;;;;5111736;28;20414;-81
2021/04/01 03:42:42;;;;;;;3.92;0.98;;;22.50;99.90;;;;;;5107566;28;20380;-81
2021/04/01 03:45:11;;;;;;;3.50;0.82;;;22.60;99.90;;;;;;5077048;28;20384;-81
2021/04/01 03:47:39;;;;;;;3.90;0.93;;;22.60;99.90;;;;;;5091541;28;20368;-80
2021/04/01 03:50:08;;;;;;;4.70;0.93;;;22.70;99.90;;;;;;5075739;28;20389;-80
2021/04/01 03:52:35;;;;;;;3.47;1.10;;;22.70;99.90;;;;;;5100573;28;20374;-80
2021/04/01 03:55:11;;;;;;;2.92;0.90;;;22.70;99.90;;;;;;5112700;28;20382;-80
2021/04/01 03:57:40;;;;;;;4.72;0.90;;;22.60;99.90;;;;;;5111824;28;20379;-80
2021/04/01 04:00:12;;;;;;;3.40;0.70;;;22.60;99.90;;;;;;5111186;28;20996;-80
2021/04/01 04:08:05;;;;;;;3.72;0.77;;;23.20;99.90;;;;;;5111630;28;20366;-80
2021/04/01 04:10:45;;;;;;;4.45;0.70;;;23.20;99.90;;;;;;5111910;28;21197;-81
2021/04/01 04:13:16;;;;;;;2.90;1.08;;;23.20;99.90;;;;;;5111642;28;20375;-80
2021/04/01 04:15:43;;;;;;;4.22;0.90;;;23.30;99.90;;;;;;5111350;28;20481;-80
2021/04/01 04:18:10;;;;;;;3.38;0.70;;;23.40;99.90;;;;;;5111394;28;20399;-81
2021/04/01 04:20:37;;;;;;;2.63;0.80;;;23.30;99.90;;;;;;5111544;28;20466;-80
2021/04/01 04:23:05;;;;;;;3.25;0.70;;;23.00;99.90;;;;;;5111397;28;20436;-80
2021/04/01 04:25:34;;;;;;;2.17;0.80;;;22.80;99.90;;;;;;5111995;28;20414;-80
2021/04/01 04:28:10;;;;;;;3.25;0.70;;;22.60;99.90;;;;;;5111226;28;20370;-80
2021/04/01 04:30:38;;;;;;;5.05;0.95;;;22.60;99.90;;;;;;5110956;28;20410;-80
2021/04/01 04:33:05;;;;;;;3.33;0.88;;;22.50;99.90;;;;;;5111441;28;20374;-80
2021/04/01 04:35:32;;;;;;;4.33;0.80;;;22.30;99.90;;;;;;5111113;28;20460;-80
2021/04/01 04:38:00;;;;;;;3.50;0.90;;;22.10;99.90;;;;;;5111283;28;20454;-80
2021/04/01 04:40:28;;;;;;;4.15;0.80;;;22.00;99.90;;;;;;5110733;28;20965;-81
2021/04/01 04:42:55;;;;;;;5.27;0.90;;;21.90;99.90;;;;;;5111094;28;20425;-80
2021/04/01 04:45:22;;;;;;;3.70;0.73;;;21.80;99.90;;;;;;5110768;28;20363;-80
2021/04/01 04:47:49;;;;;;;2.50;0.80;;;21.70;99.90;;;;;;5110745;28;20367;-80
2021/04/01 04:50:16;;;;;;;3.47;1.00;;;21.60;99.90;;;;;;5110818;28;20374;-80
2021/04/01 04:52:43;;;;;;;3.90;0.77;;;21.60;99.90;;;;;;5110646;28;20506;-80
2021/04/01 04:55:12;;;;;;;3.40;0.77;;;21.60;99.90;;;;;;5111198;28;20375;-80
2021/04/01 05:05:28;;;;;;;5.15;1.23;;;21.50;99.90;;;;;;5110819;28;20369;-80
2021/04/01 05:07:55;;;;;;;6.13;0.98;;;21.50;99.90;;;;;;5113685;28;20925;-80
2021/04/01 05:10:22;;;;;;;4.35;0.93;;;21.40;99.90;;;;;;5110333;28;20375;-80
2021/04/01 05:13:00;;;;;;;4.32;0.90;;;21.40;99.90;;;;;;5110362;28;20948;-80
2021/04/01 05:15:27;;;;;;;5.18;1.08;;;21.40;99.90;;;;;;5114046;28;20363;-81
2021/04/01 05:18:04;;;;;;;7.60;1.10;;;21.40;99.90;;;;;;5110593;28;20371;-81
2021/04/01 05:20:31;;;;;;;4.18;0.98;;;21.60;99.90;;;;;;5110330;28;20390;-81
2021/04/01 05:23:05;;;;;;;6.30;1.20;;;21.70;99.90;;;;;;5090903;28;20927;-80
2021/04/01 05:25:32;;;;;;;5.90;1.27;;;21.80;99.90;;;;;;5092299;28;20394;-80
2021/04/01 05:28:06;;;;;;;7.25;1.35;;;21.80;99.90;;;;;;5108858;28;20565;-81
2021/04/01 05:30:33;;;;;;;7.25;1.15;;;21.50;99.90;;;;;;5110859;28;20857;-81
2021/04/01 05:33:00;;;;;;;5.53;1.05;;;21.30;99.90;;;;;;5100440;28;20508;-81
2021/04/01 05:35:27;;;;;;;4.82;1.33;;;21.30;99.90;;;;;;5089909;28;20462;-81
2021/04/01 05:37:54;;;;;;;4.40;0.95;;;21.20;99.90;;;;;;5074064;28;20385;-81
2021/04/01 05:40:22;;;;;;;5.65;1.25;;;21.20;99.90;;;;;;5089141;28;20515;-81
2021/04/01 05:42:51;;;;;;;5.30;1.20;;;21.10;99.90;;;;;;5108281;28;20394;-82
2021/04/01 05:47:54;;;;;;;5.65;1.30;;;20.80;99.90;;;;;;5096387;28;20455;-81
2021/04/01 06:02:18;;;;;;;7.43;1.08;;;20.50;99.90;;;;;;5090344;28;20368;-79
2021/04/01 06:04:30;;;;;;;4.60;0.82;;;20.40;99.90;;;;;;5083642;28;20369;-81
2021/04/01 06:07:03;;;;;;;7.72;2.00;;;20.40;99.90;;;;;;5090312;28;20385;-81
2021/04/01 06:09:40;;;;;;;6.22;1.13;;;20.40;99.90;;;;;;5089205;28;20373;-80
2021/04/01 06:12:08;;;;;;;5.70;1.38;;;20.40;99.90;;;;;;5090456;28;20372;-81
2021/04/01 06:14:36;;;;;;;4.47;1.00;;;20.50;99.90;;;;;;5071368;28;20385;-80
2021/04/01 06:17:05;;;;;;;4.30;0.90;;;20.60;99.90;;;;;;5088938;28;20992;-81
2021/04/01 06:19:37;;;;;;;4.40;0.90;;;20.60;99.90;;;;;;5072215;28;20793;-79
2021/04/01 06:22:06;;;;;;;5.40;0.90;;;20.60;99.90;;;;;;5072186;28;20375;-81
2021/04/01 06:24:35;;;;;;;5.63;0.98;;;20.60;99.90;;;;;;5090264;28;20769;-82
2021/04/01 06:27:15;;;;;;;5.53;1.25;;;20.60;99.90;;;;;;5089894;28;20387;-81
2021/04/01 06:30:36;;;;;;;4.38;0.70;;;20.60;99.90;;;;;;5091716;28;21157;-81
2021/04/01 06:32:37;;;;;;;4.93;0.88;;;20.60;99.90;;;;;;5102543;28;20854;-81
2021/04/01 06:35:21;;;;;;;4.20;0.95;;;20.60;99.90;;;;;;5113731;28;20699;-81
2021/04/01 06:40:51;;;;;;;3.90;1.10;;;20.50;99.90;;;;;;5093966;28;20469;-81
2021/04/01 06:43:22;;;;;;;7.65;1.10;;;20.40;99.90;;;;;;5094391;28;20383;-81
2021/04/01 06:45:58;;;;;;;7.40;1.00;;;20.40;99.90;;;;;;5108857;28;20375;-81
2021/04/01 06:48:52;;;;;;;3.90;1.10;;;20.30;99.90;;;;;;5112096;28;20377;-81
2021/04/01 06:51:29;;;;;;;4.55;1.05;;;20.30;99.90;;;;;;5112603;28;20402;-81
2021/04/01 06:54:12;;;;;;;4.47;0.88;;;20.30;99.90;;;;;;5095263;28;20387;-81
2021/04/01 07:04:42;;;;;;;4.30;1.02;;;20.20;99.90;;;;;;5102152;28;20869;-80
2021/04/01 07:07:21;;;;;;;6.15;0.95;;;20.10;99.90;;;;;;5104788;28;20363;-81
2021/04/01 07:12:31;;;;;;;5.35;0.98;;;20.10;99.90;;;;;;5111015;28;20423;-81
2021/04/01 07:15:05;;;;;;;4.00;1.02;;;20.00;99.90;;;;;;5112221;28;20367;-81
2021/04/01 07:17:41;;;;;;;5.13;0.97;;;19.90;99.90;;;;;;5108144;27;20389;-80
2021/04/01 07:48:03;;;;;;;5.13;0.93;;;19.30;99.90;;;;;;5105725;28;20390;-80
2021/04/01 07:50:43;;;;;;;7.47;1.20;;;19.20;99.90;;;;;;5110559;28;20762;-80
2021/04/01 07:53:12;;;;;;;4.93;1.30;;;19.10;99.90;;;;;;5111036;28;20912;-80
2021/04/01 07:56:19;;;;;;;3.25;0.80;;;19.10;99.90;;;;;;5114668;28;20405;-80
2021/04/01 08:02:22;;;;;;;5.40;1.50;;;18.90;99.90;;;;;;5110331;28;20383;-80
2021/04/01 08:04:11;;;;;;;3.40;1.35;;;18.90;99.90;;;;;;5095728;28;20371;-80
2021/04/01 08:06:38;;;;;;;6.03;1.33;;;18.80;99.90;;;;;;5111857;28;20382;-80
2021/04/01 08:09:09;;;;;;;6.30;2.03;;;18.80;99.90;;;;;;5111880;28;20363;-80
2021/04/01 08:11:44;;;;;;;5.25;1.60;;;18.80;99.90;;;;;;5088827;28;20397;-80
2021/04/01 08:14:15;;;;;;;6.05;1.52;;;18.70;99.90;;;;;;5091313;28;20418;-80
2021/04/01 08:16:51;;;;;;;4.63;1.20;;;18.70;99.90;;;;;;5101481;28;20793;-80
2021/04/01 08:19:24;;;;;;;4.77;1.27;;;18.70;99.90;;;;;;5092593;28;20418;-80
2021/04/01 08:21:53;;;;;;;3.20;0.98;;;18.60;99.90;;;;;;5110672;28;20399;-80
2021/04/01 08:24:27;;;;;;;4.13;1.05;;;18.50;99.90;;;;;;5110911;28;20356;-79
2021/04/01 08:27:19;;;;;;;4.47;0.95;;;18.50;99.90;;;;;;5111056;28;20737;-79
2021/04/01 08:35:15;;;;;;;5.93;1.02;;;18.50;99.90;;;;;;5093083;28;20422;-80
2021/04/01 08:37:58;;;;;;;7.45;1.10;;;18.40;99.90;;;;;;5106922;28;20432;-80
2021/04/01 08:40:25;;;;;;;3.30;0.60;;;18.40;99.90;;;;;;5098526;28;20400;-80
2021/04/01 08:43:42;;;;;;;6.03;1.25;;;18.40;99.90;;;;;;5105447;28;20375;-80
2021/04/01 08:46:27;;;;;;;4.70;1.13;;;18.30;99.90;;;;;;5091338;28;20376;-80
2021/04/01 08:49:09;;;;;;;4.68;1.08;;;18.20;99.90;;;;;;5102805;28;20812;-83
2021/04/01 08:52:00;;;;;;;4.57;1.10;;;18.10;99.90;;;;;;5110137;28;20948;-81
2021/04/01 08:54:41;;;;;;;4.40;0.95;;;18.10;99.90;;;;;;5113797;28;20431;-82
2021/04/01 08:57:23;;;;;;;7.30;1.00;;;18.00;99.90;;;;;;5094036;28;20394;-81
2021/04/01 09:00:07;;;;;;;4.10;1.10;;;18.00;99.90;;;;;;5101466;28;20463;-80
2021/04/01 09:02:38;;;;;;;5.95;1.05;;;17.90;99.90;;;;;;5112437;28;20371;-82
2021/04/01 09:05:08;;;;;;;4.30;1.20;;;17.90;99.90;;;;;;5095022;28;20377;-81
2021/04/01 09:07:43;;;;;;;3.57;0.90;;;17.90;99.90;;;;;;5110032;28;20375;-81
2021/04/01 09:10:19;;;;;;;2.83;1.17;;;17.90;99.90;;;;;;5113382;28;20725;-82
2021/04/01 09:13:14;;;;;;;4.68;0.90;;;17.80;99.90;;;;;;5113645;28;20462;-82
2021/04/01 09:15:58;;;;;;;5.88;1.02;;;17.80;99.90;;;;;;5115841;28;20434;-82
2021/04/01 09:18:37;;;;;;;5.05;1.25;;;17.80;99.90;;;;;;5106190;28;20423;-81
2021/04/01 09:21:05;;;;;;;4.05;1.40;;;17.80;99.90;;;;;;5110788;28;20417;-80
2021/04/01 09:23:38;;;;;;;6.72;1.30;;;17.80;99.90;;;;;;5114834;28;20367;-81
2021/04/01 09:26:06;;;;;;;5.32;1.60;;;17.80;99.90;;;;;;5096403;28;20393;-83
2021/04/01 09:28:37;;;;;;;6.43;1.57;;;17.70;99.90;;;;;;5093330;28;20507;-83
2021/04/01 09:31:06;;;;;;;5.40;1.50;;;17.70;99.90;;;;;;5115258;28;20889;-83
2021/04/01 09:33:36;;;;;;;7.57;1.30;;;17.70;99.90;;;;;;5108849;28;20380;-82
2021/04/01 09:36:10;;;;;;;5.20;1.33;;;17.70;99.90;;;;;;5103768;28;20374;-83
2021/04/01 09:38:42;;;;;;;5.25;1.20;;;17.70;99.90;;;;;;5116098;28;20390;-82
2021/04/01 09:41:24;;;;;;;6.38;1.13;;;17.70;99.90;;;;;;5103873;28;20392;-81
2021/04/01 09:43:53;;;;;;;6.47;1.40;;;17.60;99.90;;;;;;5115981;28;20381;-82
2021/04/01 09:46:25;;;;;;;5.85;1.20;;;17.60;99.90;;;;;;5117320;28;21456;-82
2021/04/01 09:49:17;;;;;;;2.88;1.00;;;17.60;99.90;;;;;;5115906;28;20383;-82
2021/04/01 09:51:53;;;;;;;5.47;1.05;;;17.60;99.90;;;;;;5099953;28;20422;-81
2021/04/01 09:54:20;;;;;;;4.97;1.05;;;17.50;99.90;;;;;;5111284;28;20386;-82
2021/04/01 09:56:59;;;;;;;3.42;1.15;;;17.50;99.90;;;;;;5117359;28;20463;-81
2021/04/01 10:02:34;;;;;;;6.32;1.00;;;17.50;99.90;;;;;;5111564;28;20370;-82
2021/04/01 10:05:06;;;;;;;4.43;1.05;;;17.50;99.90;;;;;;5111504;28;20946;-81
2021/04/01 10:07:37;;;;;;;4.55;1.15;;;17.50;99.90;;;;;;5111661;28;20367;-82
2021/04/01 10:10:06;;;;;;;4.00;1.05;;;17.50;99.90;;;;;;5112184;27;20468;-81
2021/04/01 10:12:41;;;;;;;6.43;1.10;;;17.50;99.90;;;;;;5099907;28;20381;-82
2021/04/01 10:15:10;;;;;;;3.22;1.00;;;17.50;99.90;;;;;;5100756;28;20394;-81
2021/04/01 10:17:39;;;;;;;4.93;1.05;;;17.50;99.90;;;;;;5105967;28;20381;-80
2021/04/01 10:20:08;;;;;;;5.40;1.10;;;17.50;99.90;;;;;;5088719;28;20634;-81
2021/04/01 10:22:39;;;;;;;6.30;1.10;;;17.50;99.90;;;;;;5109625;28;20436;-81
2021/04/01 10:25:19;;;;;;;5.25;1.00;;;17.50;99.90;;;;;;5091684;28;20828;-81
2021/04/01 10:30:27;;;;;;;2.67;0.93;;;17.50;99.90;;;;;;5112049;28;20363;-82
2021/04/01 10:33:13;;;;;;;4.00;1.02;;;17.50;99.90;;;;;;5090741;28;20380;-81
2021/04/01 10:35:42;;;;;;;5.63;1.05;;;17.40;99.90;;;;;;5106470;28;20418;-82
2021/04/01 10:38:12;;;;;;;4.85;0.90;;;17.50;99.90;;;;;;5111390;28;20504;-80
2021/04/01 10:40:43;;;;;;;4.20;1.10;;;17.40;99.90;;;;;;5111940;28;20893;-80
2021/04/01 10:43:11;;;;;;;4.85;1.05;;;17.40;99.90;;;;;;5110670;28;20862;-81
2021/04/01 10:45:46;;;;;;;4.22;0.80;;;17.40;99.90;;;;;;5088516;28;20482;-80
2021/04/01 10:48:28;;;;;;;5.90;1.10;;;17.40;99.90;;;;;;5107487;28;20532;-81
2021/04/01 10:51:01;;;;;;;5.20;1.10;;;17.40;99.90;;;;;;5101285;28;20411;-81
2021/04/01 10:53:30;;;;;;;7.72;1.30;;;17.40;99.90;;;;;;5110706;28;20383;-81
2021/04/01 10:56:08;;;;;;;6.85;1.13;;;17.40;99.90;;;;;;5111308;28;20391;-81
2021/04/01 10:58:46;;;;;;;4.60;1.23;;;17.40;99.90;;;;;;5109484;28;20471;-82
2021/04/01 11:01:13;;;;;;;5.15;1.25;;;17.30;99.90;;;;;;5110504;28;20387;-82
2021/04/01 11:03:46;;;;;;;4.40;1.30;;;17.30;99.90;;;;;;5078923;28;20398;-81
2021/04/01 11:06:14;;;;;;;5.00;1.23;;;17.20;99.90;;;;;;5109213;28;20435;-81
2021/04/01 11:08:46;;;;;;;4.82;0.90;;;17.20;99.90;;;;;;5089106;28;20394;-82
2021/04/01 11:11:15;;;;;;;3.85;0.93;;;17.20;99.90;;;;;;5109888;28;20418;-82
2021/04/01 11:13:46;;;;;;;6.70;1.17;;;17.20;99.90;;;;;;5112625;28;20387;-83
2021/04/01 11:16:37;;;;;;;6.47;1.42;;;17.20;99.90;;;;;;5094534;28;20796;-82
2021/04/01 11:19:14;;;;;;;7.70;1.50;;;17.20;99.90;;;;;;5107972;28;20408;-82
2021/04/01 11:21:41;;;;;;;4.97;1.25;;;17.10;99.90;;;;;;5087360;28;20487;-81
2021/04/01 11:24:11;;;;;;;6.72;1.20;;;17.10;99.90;;;;;;5093248;28;20905;-81
2021/04/01 11:26:39;;;;;;;5.65;1.20;;;17.10;99.90;;;;;;5084154;28;20477;-81
2021/04/01 11:29:16;;;;;;;6.57;1.45;;;17.10;99.90;;;;;;5112627;28;20382;-81
2021/04/01 11:31:44;;;;;;;6.30;1.30;;;17.10;99.90;;;;;;5098699;28;20393;-81
2021/04/01 11:34:11;;;;;;;4.32;1.10;;;17.10;99.90;;;;;;5110052;28;20386;-81
2021/04/01 11:36:41;;;;;;;7.45;1.35;;;17.00;99.90;;;;;;5091935;28;20447;-82
2021/04/01 11:39:36;;;;;;;5.88;1.40;;;17.00;99.90;;;;;;5110082;28;20445;-80
2021/04/01 11:42:01;;;;;;;6.53;1.30;;;17.00;99.90;;;;;;5107836;28;20863;-81
2021/04/01 11:44:29;;;;;;;6.50;1.08;;;17.00;99.90;;;;;;5100317;28;20395;-81
2021/04/01 11:46:56;;;;;;;4.32;1.27;;;17.00;99.90;;;;;;5089970;28;20379;-80
2021/04/01 11:49:23;;;;;;;6.65;1.40;;;17.00;99.90;;;;;;5108752;28;20421;-80
2021/04/01 11:51:50;;;;;;;6.05;1.50;;;17.00;99.90;;;;;;5107522;28;20417;-81
2021/04/01 11:54:24;;;;;;;9.45;1.40;;;17.00;99.90;;;;;;5110914;28;20394;-82
2021/04/01 11:56:51;;;;;;;7.07;1.20;;;17.00;99.90;;;;;;5090786;28;20390;-82
2021/04/01 11:59:21;;;;;;;5.25;1.30;;;17.00;99.90;;;;;;5110466;28;20766;-84
2021/04/01 12:01:57;;;;;;;4.20;1.50;;;17.00;99.90;;;;;;5109111;28;21302;-82
2021/04/01 12:04:29;;;;;;;8.68;1.85;;;17.00;99.90;;;;;;5107395;28;20379;-83
2021/04/01 12:06:57;;;;;;;8.45;1.95;;;17.00;99.90;;;;;;5110736;28;20382;-81
2021/04/01 12:09:25;;;;;;;5.32;1.67;;;17.00;99.90;;;;;;5083074;28;20402;-82
2021/04/01 12:11:52;;;;;;;8.52;2.03;;;16.90;99.90;;;;;;5110625;28;20800;-82
2021/04/01 12:14:20;;;;;;;7.10;1.70;;;16.90;99.90;;;;;;5105198;28;20392;-82
2021/04/01 12:16:47;;;;;;;7.68;1.77;;;16.90;99.90;;;;;;5092504;28;20744;-82
2021/04/01 12:19:14;;;;;;;6.45;1.60;;;16.90;99.90;;;;;;5096710;28;20451;-81
2021/04/01 12:21:42;;;;;;;8.63;1.45;;;16.80;99.90;;;;;;5111882;28;20437;-81
2021/04/01 12:24:09;;;;;;;3.00;1.17;;;16.80;99.90;;;;;;5101146;28;20458;-82
2021/04/01 12:26:50;;;;;;;5.65;1.45;;;16.70;99.90;;;;;;5086598;28;20383;-81
2021/04/01 12:29:18;;;;;;;5.78;1.38;;;16.70;99.90;;;;;;5099600;28;20391;-81
2021/04/01 12:31:52;;;;;;;6.75;1.40;;;16.60;99.90;;;;;;5113640;28;20378;-81
2021/04/01 12:34:32;;;;;;;5.10;1.30;;;16.60;99.90;;;;;;5105608;28;20421;-81
2021/04/01 12:37:04;;;;;;;7.20;1.35;;;16.60;99.90;;;;;;5092318;28;20410;-80
2021/04/01 12:39:35;;;;;;;7.85;2.00;;;16.60;99.90;;;;;;5092003;28;20399;-80
2021/04/01 12:42:03;;;;;;;5.72;1.77;;;16.60;99.90;;;;;;5093752;28;20387;-81
2021/04/01 12:44:41;;;;;;;7.15;1.65;;;16.60;99.90;;;;;;5109935;28;20753;-80
2021/04/01 12:47:10;;;;;;;5.07;1.33;;;16.60;99.90;;;;;;5102924;28;20424;-80
2021/04/01 12:49:37;;;;;;;6.57;1.33;;;16.60;99.90;;;;;;5102893;28;20386;-80
2021/04/01 12:52:06;;;;;;;4.83;1.40;;;16.60;99.90;;;;;;5111462;28;20472;-80
2021/04/01 12:54:44;;;;;;;6.72;1.58;;;16.60;99.90;;;;;;5111402;28;20378;-80
2021/04/01 12:57:16;;;;;;;4.60;1.20;;;16.50;99.90;;;;;;5109994;28;20398;-81
2021/04/01 12:59:48;;;;;;;8.30;1.42;;;16.50;99.90;;;;;;5109935;28;20429;-81
2021/04/01 13:02:21;;;;;;;8.77;1.48;;;16.50;99.90;;;;;;5111367;28;20423;-82
2021/04/01 13:04:56;;;;;;;8.00;1.35;;;16.40;99.90;;;;;;5110200;28;20401;-82
2021/04/01 13:12:26;;;;;;;9.05;1.75;;;16.40;99.90;;;;;;5104563;28;20391;-81
2021/04/01 13:14:53;;;;;;;5.03;1.30;;;16.30;99.90;;;;;;5103140;27;20397;-80
2021/04/01 13:17:20;;;;;;;4.68;1.38;;;16.30;99.90;;;;;;5094109;28;20388;-81
2021/04/01 13:19:47;;;;;;;5.13;1.70;;;16.30;99.90;;;;;;5102222;28;20420;-82
2021/04/01 13:22:34;;;;;;;6.88;1.63;;;16.30;99.90;;;;;;5093575;28;20757;-81
2021/04/01 13:27:28;;;;;;;4.82;1.10;;;16.20;99.90;;;;;;5102125;28;20383;-81
2021/04/01 13:30:00;;;;;;;9.30;1.70;;;16.10;99.90;;;;;;5106940;28;20761;-81
2021/04/01 13:35:11;;;;;;;3.80;1.27;;;16.00;99.90;;;;;;5108504;28;20395;-81
2021/04/01 13:37:42;;;;;;;4.68;1.30;;;16.00;99.90;;;;;;5103587;28;20383;-82
2021/04/01 13:40:14;;;;;;;7.27;2.20;;;16.00;99.90;;;;;;5106641;28;20411;-82
2021/04/01 13:42:47;;;;;;;3.77;1.93;;;16.00;99.90;;;;;;5108938;28;20795;-82
2021/04/01 13:45:17;;;;;;;5.60;1.40;;;16.00;99.90;;;;;;5082553;28;20408;-82
2021/04/01 13:47:48;;;;;;;3.65;1.35;;;16.00;99.90;;;;;;5105883;28;20389;-82
2021/04/01 13:50:19;;;;;;;3.53;1.13;;;16.00;99.90;;;;;;5106890;28;20394;-81
2021/04/01 13:55:23;;;;;;;6.45;1.70;;;15.90;99.90;;;;;;5104018;28;20918;-81
2021/04/01 14:11:20;;;;;;;6.38;1.60;;;16.00;99.90;;;;;;5098073;28;20375;-80
2021/04/01 14:13:48;;;;;;;5.80;1.45;;;16.00;99.90;;;;;;5090787;28;20421;-80
2021/04/01 14:16:19;;;;;;;5.85;1.67;;;16.00;99.90;;;;;;5101917;28;20390;-81
2021/04/01 14:18:50;;;;;;;4.68;1.42;;;16.00;99.90;;;;;;5105052;28;20513;-80
2021/04/01 14:21:21;;;;;;;5.45;1.40;;;16.00;99.90;;;;;;5108710;28;20416;-81
2021/04/01 14:23:50;;;;;;;3.63;1.48;;;16.00;99.90;;;;;;5110372;28;20386;-81
2021/04/01 14:26:33;;;;;;;4.90;1.63;;;16.00;99.90;;;;;;5109154;28;20422;-81
2021/04/01 14:29:00;;;;;;;4.45;1.65;;;16.00;99.90;;;;;;5097526;28;20391;-81
2021/04/01 14:31:27;;;;;;;6.90;1.70;;;16.00;99.90;;;;;;5084712;28;20392;-81
2021/04/01 14:33:54;;;;;;;7.10;1.58;;;16.00;99.90;;;;;;5110263;28;20515;-82
2021/04/01 14:36:25;;;;;;;4.68;1.60;;;16.00;99.90;;;;;;5092041;28;20522;-80
2021/04/01 14:38:52;;;;;;;7.47;1.80;;;16.00;99.90;;;;;;5107440;28;20455;-81
2021/04/01 14:44:07;;;;;;;8.23;1.80;;;16.00;99.90;;;;;;5107696;28;20379;-81
2021/04/01 14:46:35;;;;;;;8.88;1.58;;;16.00;99.90;;;;;;5109431;28;20386;-81
2021/04/01 14:49:04;;;;;;;4.95;1.70;;;16.10;99.90;;;;;;5109578;28;20717;-81
2021/04/01 14:51:32;;;;;;;5.20;1.60;;;16.20;99.90;;;;;;5109417;28;20397;-81
2021/04/01 14:54:12;;;;;;;5.68;1.42;;;16.20;99.90;;;;;;5111056;28;20501;-81
2021/04/01 14:56:45;;;;;;;6.35;1.42;;;16.20;99.90;;;;;;5113210;28;20390;-82
2021/04/01 14:59:23;;;;;;;7.25;1.60;;;16.20;99.90;;;;;;5113813;28;20473;-82
2021/04/01 15:01:52;;;;;;;4.90;1.60;;;16.20;99.90;;;;;;5110258;28;20383;-82
2021/04/01 15:04:19;;;;;;;5.53;1.73;;;16.10;99.90;;;;;;5111836;28;20389;-82